Aviation Digital Data Service (ADDS)

Output produced by METARs form (1825 UTC 16 August 2018)
found at http://www.aviationweather.gov/adds/metars/
 
TAF EGYP 161619Z 1618/1712 34018G28KT 9999 FEW012 
     BECMG 1618/1620 28017G28KT 
     BECMG 1621/1623 25012KT 
     PROB40 
     TEMPO 1621/1704 SCT012 
     PROB40 
     TEMPO 1706/1710 2000 BR SCT004 
     PROB30 
     TEMPO 1706/1710 0500 FG VV/// 
     BECMG 1710/1712 01017G27KT 520003